Time;durP1;ratioP1;P1;durP2;ratioP2;P2;SDS_P1;SDS_P2;PMS_P1;PMS_P2;Temp;Humidity;BMP_temperature;BMP_pressure;BME280_temperature;BME280_humidity;BME280_pressure;Samples;Min_cycle;Max_cycle;Signal;HPM_P1;HPM_P2
2021/07/31 00:01:14;;;;;;;0.40;0.00;;;;;;;21.03;58.01;99599.80;126134;1092;103345;-71
2021/07/31 00:03:42;;;;;;;0.40;0.00;;;;;;;21.04;58.43;99605.09;125980;1093;113695;-70
2021/07/31 00:06:27;;;;;;;0.40;0.00;;;;;;;21.07;58.34;99606.68;126071;1095;102969;-71
2021/07/31 00:08:54;;;;;;;0.40;0.00;;;;;;;20.96;58.19;99602.16;125984;1093;114010;-71
2021/07/31 00:11:21;;;;;;;0.40;0.00;;;;;;;20.85;58.79;99596.79;126000;1092;103028;-72
2021/07/31 00:13:48;;;;;;;0.40;0.00;;;;;;;20.83;59.12;99587.92;126072;1095;102934;-71
2021/07/31 00:16:16;;;;;;;0.40;0.00;;;;;;;20.79;59.19;99592.75;125942;1094;114186;-71
2021/07/31 00:18:43;;;;;;;0.40;0.05;;;;;;;20.71;59.57;99587.08;126011;1096;102929;-72
2021/07/31 00:21:10;;;;;;;0.40;0.00;;;;;;;20.61;59.44;99594.22;125975;1093;114090;-71
2021/07/31 00:23:37;;;;;;;0.40;0.10;;;;;;;20.56;59.17;99597.28;125972;1095;102915;-70
2021/07/31 00:26:04;;;;;;;0.40;0.00;;;;;;;20.55;59.63;99604.55;125903;1094;113432;-71
2021/07/31 00:28:32;;;;;;;0.40;0.00;;;;;;;20.57;59.54;99603.57;125984;1094;103036;-71
2021/07/31 00:30:59;;;;;;;0.40;0.00;;;;;;;20.57;59.74;99595.45;126154;1096;102876;-71
2021/07/31 00:33:26;;;;;;;0.40;0.10;;;;;;;20.58;59.62;99592.63;125948;1094;113907;-71
2021/07/31 00:35:53;;;;;;;0.40;0.00;;;;;;;20.54;59.18;99594.70;126067;1096;103033;-71
2021/07/31 00:38:20;;;;;;;0.40;0.10;;;;;;;20.58;59.59;99598.03;125882;1093;114178;-71
2021/07/31 00:40:47;;;;;;;0.40;0.00;;;;;;;20.59;59.29;99590.77;126099;1092;103135;-71
2021/07/31 00:43:14;;;;;;;0.40;0.00;;;;;;;20.55;59.38;99599.14;126063;1093;102980;-71
2021/07/31 00:45:42;;;;;;;0.40;0.00;;;;;;;20.52;59.59;99603.92;125941;1093;113935;-71
2021/07/31 00:48:09;;;;;;;0.40;0.00;;;;;;;20.56;59.95;99605.40;126023;1094;103191;-71
2021/07/31 00:50:36;;;;;;;0.40;0.10;;;;;;;20.51;59.88;99592.26;125982;1093;114110;-71
2021/07/31 00:53:04;;;;;;;0.40;0.10;;;;;;;20.45;60.09;99597.31;126097;1093;102990;-71
2021/07/31 00:55:32;;;;;;;0.40;0.00;;;;;;;20.47;59.68;99601.61;126056;1096;103007;-71
2021/07/31 00:57:59;;;;;;;0.40;0.10;;;;;;;20.54;59.68;99594.70;125893;1093;114271;-71
2021/07/31 01:00:26;;;;;;;0.40;0.10;;;;;;;20.60;59.36;99597.91;126000;1093;102916;-71
2021/07/31 01:02:54;;;;;;;0.40;0.00;;;;;;;20.59;58.66;99590.77;125895;1093;113937;-72
2021/07/31 01:05:22;;;;;;;0.40;0.00;;;;;;;20.58;58.72;99584.51;126123;1093;102918;-71
2021/07/31 01:07:50;;;;;;;0.40;0.10;;;;;;;20.58;58.86;99583.63;126081;1092;102911;-71
2021/07/31 01:10:19;;;;;;;0.40;0.10;;;;;;;20.59;58.86;99580.79;126216;1093;114239;-71
2021/07/31 01:12:47;;;;;;;0.40;0.00;;;;;;;20.64;58.43;99575.87;126138;1093;103344;-71
2021/07/31 01:15:15;;;;;;;0.40;0.00;;;;;;;20.68;58.62;99573.78;125999;1093;113991;-74
2021/07/31 01:17:43;;;;;;;0.40;0.10;;;;;;;20.71;58.47;99576.26;126068;1096;102982;-71
2021/07/31 01:20:11;;;;;;;0.40;0.00;;;;;;;20.74;58.09;99572.44;126027;1093;113077;-71
2021/07/31 01:22:38;;;;;;;0.40;0.10;;;;;;;20.76;58.27;99574.03;126112;1096;102996;-72
2021/07/31 01:25:06;;;;;;;0.40;0.10;;;;;;;20.68;58.34;99584.60;126142;1095;102908;-72
2021/07/31 01:27:34;;;;;;;0.40;0.10;;;;;;;20.56;59.19;99578.34;125874;1093;114180;-71
2021/07/31 01:30:03;;;;;;;0.40;0.10;;;;;;;20.45;59.11;99583.78;126086;1093;102989;-74
2021/07/31 01:32:30;;;;;;;0.40;0.10;;;;;;;20.32;59.37;99583.90;125970;1093;114176;-71
2021/07/31 01:34:57;;;;;;;0.40;0.10;;;;;;;20.29;59.86;99585.00;126108;1096;102984;-71
2021/07/31 01:37:24;;;;;;;0.40;0.08;;;;;;;20.27;59.69;99584.25;126089;1096;102967;-71
2021/07/31 01:39:52;;;;;;;0.40;0.00;;;;;;;20.20;60.30;99588.44;126008;1096;112928;-71
2021/07/31 01:42:19;;;;;;;0.40;0.00;;;;;;;20.17;60.64;99586.00;126090;1096;103672;-71
2021/07/31 01:44:46;;;;;;;0.40;0.10;;;;;;;20.11;60.52;99581.91;126031;1095;113960;-71
2021/07/31 01:47:13;;;;;;;0.40;0.10;;;;;;;20.08;61.02;99575.91;126055;1095;102935;-72
2021/07/31 01:49:41;;;;;;;0.40;0.00;;;;;;;20.16;60.72;99579.70;126124;1096;102882;-72
2021/07/31 01:52:08;;;;;;;0.40;0.10;;;;;;;20.08;60.72;99578.61;125915;1092;113957;-72
2021/07/31 01:54:35;;;;;;;0.40;0.10;;;;;;;20.03;61.36;99565.45;126244;1093;102991;-72
2021/07/31 01:57:02;;;;;;;0.40;0.10;;;;;;;20.02;61.21;99575.41;125994;1093;113928;-72
2021/07/31 01:59:29;;;;;;;0.40;0.10;;;;;;;20.02;61.15;99577.27;126113;1093;103009;-72
2021/07/31 02:01:56;;;;;;;0.40;0.00;;;;;;;20.00;61.39;99574.66;125967;1093;114351;-72
2021/07/31 02:04:24;;;;;;;0.40;0.10;;;;;;;19.97;61.57;99568.66;126034;1093;102917;-72
2021/07/31 02:06:51;;;;;;;0.40;0.10;;;;;;;19.92;61.26;99568.16;126102;1093;103100;-72
2021/07/31 02:09:19;;;;;;;0.40;0.10;;;;;;;19.93;61.53;99581.54;126006;1092;114086;-72
2021/07/31 02:11:46;;;;;;;0.40;0.10;;;;;;;19.98;61.40;99579.34;125982;1093;102902;-72
2021/07/31 02:14:13;;;;;;;0.40;0.00;;;;;;;20.03;60.77;99576.26;125955;1093;114091;-72
2021/07/31 02:16:40;;;;;;;0.40;0.00;;;;;;;20.10;60.56;99587.45;126085;1093;103008;-71
2021/07/31 02:19:07;;;;;;;0.40;0.10;;;;;;;20.11;60.41;99589.17;126065;1093;102971;-71
2021/07/31 02:21:35;;;;;;;0.40;0.07;;;;;;;20.13;60.20;99582.66;125954;1093;113979;-71
2021/07/31 02:24:02;;;;;;;0.40;0.00;;;;;;;20.18;60.11;99585.87;126129;1093;102926;-72
2021/07/31 02:26:29;;;;;;;0.40;0.03;;;;;;;20.16;60.38;99585.11;125927;1093;114111;-72
2021/07/31 02:28:56;;;;;;;0.40;0.10;;;;;;;20.08;60.45;99589.42;126107;1093;103047;-73
2021/07/31 02:31:23;;;;;;;0.40;0.10;;;;;;;20.03;60.99;99584.37;126016;1093;102931;-72
2021/07/31 02:33:50;;;;;;;0.40;0.00;;;;;;;19.93;61.07;99588.80;125979;1093;113933;-73
2021/07/31 02:36:18;;;;;;;0.40;0.00;;;;;;;19.70;61.36;99596.83;126117;1092;102922;-72
2021/07/31 02:38:45;;;;;;;0.40;0.00;;;;;;;19.57;61.40;99599.60;126040;1093;114717;-72
2021/07/31 02:41:12;;;;;;;0.40;0.10;;;;;;;19.57;61.36;99596.90;126038;1093;102907;-73
2021/07/31 02:43:39;;;;;;;0.40;0.10;;;;;;;19.62;61.12;99589.31;126065;1093;102980;-73
2021/07/31 02:46:09;;;;;;;0.40;0.10;;;;;;;19.73;61.57;99580.37;126087;1095;113940;-72
2021/07/31 02:48:37;;;;;;;0.40;0.10;;;;;;;19.68;61.50;99567.20;126176;1093;103027;-72
2021/07/31 02:51:09;;;;;;;0.40;0.00;;;;;;;19.56;61.16;99568.16;126007;1093;113948;-72
2021/07/31 02:53:37;;;;;;;0.40;0.10;;;;;;;19.45;61.56;99566.30;126140;1093;103154;-73
2021/07/31 02:56:05;;;;;;;0.40;0.00;;;;;;;19.45;61.51;99568.99;125989;1093;114104;-72
2021/07/31 02:58:33;;;;;;;0.40;0.00;;;;;;;19.56;61.59;99581.67;126112;1093;103429;-72
2021/07/31 03:01:10;;;;;;;0.40;0.00;;;;;;;19.61;61.23;99581.33;126114;1093;102869;-72
2021/07/31 03:03:37;;;;;;;0.40;0.10;;;;;;;19.71;61.30;99576.91;126024;1093;114031;-72
2021/07/31 03:06:04;;;;;;;0.40;0.00;;;;;;;19.79;60.72;99581.72;126114;1096;102933;-73
2021/07/31 03:08:31;;;;;;;0.40;0.00;;;;;;;19.85;60.42;99583.99;126017;1093;114101;-72
2021/07/31 03:11:04;;;;;;;0.40;0.00;;;;;;;19.93;59.92;99580.69;126110;1093;103140;-75
2021/07/31 03:13:31;;;;;;;0.40;0.00;;;;;;;20.04;60.49;99580.69;126241;1092;102901;-72
2021/07/31 03:15:58;;;;;;;0.40;0.10;;;;;;;19.94;60.59;99575.16;125958;1093;113920;-72
2021/07/31 03:18:26;;;;;;;0.40;0.10;;;;;;;19.82;61.19;99578.80;126123;1092;103028;-72
2021/07/31 03:20:54;;;;;;;0.40;0.10;;;;;;;19.75;60.79;99596.45;126029;1093;113911;-72
2021/07/31 03:23:23;;;;;;;0.40;0.10;;;;;;;19.68;60.96;99588.81;126186;1092;102893;-72
2021/07/31 03:26:00;;;;;;;0.40;0.00;;;;;;;19.77;61.40;99586.41;126141;1092;102969;-72
2021/07/31 03:28:28;;;;;;;0.40;0.00;;;;;;;19.77;61.55;99567.48;126037;1096;115098;-73
2021/07/31 03:30:57;;;;;;;0.40;0.00;;;;;;;19.78;61.86;99567.36;126173;1094;103118;-72
2021/07/31 03:33:24;;;;;;;0.40;0.00;;;;;;;19.83;61.47;99573.31;126206;1096;113930;-71
2021/07/31 03:35:53;;;;;;;0.40;0.00;;;;;;;19.95;61.46;99582.27;126079;1095;102889;-72
2021/07/31 03:38:21;;;;;;;0.40;0.00;;;;;;;19.97;61.36;99576.77;126214;1093;113997;-72
2021/07/31 03:40:48;;;;;;;0.40;0.10;;;;;;;19.95;61.65;99570.61;126103;1093;102903;-72
2021/07/31 03:43:15;;;;;;;0.40;0.00;;;;;;;19.98;61.36;99573.94;126016;1096;102962;-72
2021/07/31 03:45:42;;;;;;;0.40;0.10;;;;;;;20.01;61.68;99570.13;125897;1093;113960;-72
2021/07/31 03:48:10;;;;;;;0.40;0.10;;;;;;;20.07;61.58;99568.78;126029;1095;102977;-72
2021/07/31 03:50:40;;;;;;;0.40;0.10;;;;;;;20.15;61.17;99567.20;126002;1093;114166;-72
2021/07/31 03:53:08;;;;;;;0.40;0.10;;;;;;;20.26;61.52;99563.63;126062;1093;102976;-72
2021/07/31 03:55:35;;;;;;;0.40;0.00;;;;;;;20.36;61.40;99563.73;126001;1093;102977;-72
2021/07/31 03:58:03;;;;;;;0.40;0.00;;;;;;;20.38;61.20;99568.04;126010;1092;113245;-72
2021/07/31 04:00:31;;;;;;;0.40;0.08;;;;;;;20.38;61.35;99573.45;126122;1092;102910;-72
2021/07/31 04:02:58;;;;;;;0.40;0.00;;;;;;;20.41;60.99;99558.82;126117;1093;114133;-73
2021/07/31 04:05:26;;;;;;;0.40;0.00;;;;;;;20.38;60.19;99556.38;126069;1095;102908;-72
2021/07/31 04:07:53;;;;;;;0.40;0.00;;;;;;;20.31;59.63;99561.42;126059;1093;102879;-72
2021/07/31 04:10:20;;;;;;;0.40;0.00;;;;;;;20.43;60.18;99559.54;125934;1095;114094;-72
2021/07/31 04:12:47;;;;;;;0.40;0.10;;;;;;;20.53;59.93;99552.41;126038;1093;103016;-72
2021/07/31 04:15:14;;;;;;;0.40;0.00;;;;;;;20.65;60.19;99560.52;125971;1093;113949;-72
2021/07/31 04:17:41;;;;;;;0.40;0.00;;;;;;;20.71;59.58;99565.44;126077;1093;103389;-72
2021/07/31 04:20:09;;;;;;;0.40;0.00;;;;;;;20.66;59.15;99564.92;125989;1093;114130;-72
2021/07/31 04:22:36;;;;;;;0.40;0.00;;;;;;;20.61;59.22;99554.48;126203;1096;102882;-72
2021/07/31 04:25:04;;;;;;;0.40;0.03;;;;;;;20.53;57.36;99548.85;126139;1093;103030;-72
2021/07/31 04:27:33;;;;;;;0.40;0.00;;;;;;;20.44;57.42;99555.01;125975;1092;113923;-72
2021/07/31 04:30:01;;;;;;;0.40;0.10;;;;;;;20.34;58.18;99554.88;126155;1093;102923;-72
2021/07/31 04:32:28;;;;;;;0.40;0.00;;;;;;;20.28;58.37;99547.27;126036;1092;114106;-72
2021/07/31 04:34:56;;;;;;;0.40;0.00;;;;;;;20.31;58.44;99552.42;126125;1092;102883;-72
2021/07/31 04:37:23;;;;;;;0.40;0.00;;;;;;;20.34;59.15;99563.86;126075;1093;102853;-72
2021/07/31 04:39:50;;;;;;;0.40;0.00;;;;;;;20.44;58.75;99571.23;125975;1092;113948;-72
2021/07/31 04:42:17;;;;;;;0.40;0.00;;;;;;;20.60;59.29;99565.44;126168;1092;103400;-72
2021/07/31 04:44:44;;;;;;;0.40;0.00;;;;;;;20.74;59.27;99565.20;126015;1092;114069;-71
2021/07/31 04:47:11;;;;;;;0.40;0.00;;;;;;;20.96;58.83;99561.56;126115;1093;102856;-71
2021/07/31 04:49:38;;;;;;;0.40;0.00;;;;;;;21.03;58.48;99564.61;126154;1093;102905;-71
2021/07/31 04:52:08;;;;;;;0.40;0.00;;;;;;;21.09;58.54;99561.41;126064;1096;114081;-71
2021/07/31 04:54:41;;;;;;;0.40;0.00;;;;;;;21.16;57.96;99565.30;126199;1096;103097;-73
2021/07/31 04:57:09;;;;;;;0.40;0.00;;;;;;;21.19;56.94;99561.48;126034;1095;114000;-72
2021/07/31 04:59:36;;;;;;;0.40;0.00;;;;;;;21.19;57.70;99567.77;126124;1092;102998;-72
2021/07/31 05:02:04;;;;;;;0.40;0.00;;;;;;;21.30;58.09;99566.86;126104;1093;102972;-72
2021/07/31 05:04:31;;;;;;;0.40;0.00;;;;;;;21.34;57.83;99562.90;126067;1093;114503;-72
2021/07/31 05:06:59;;;;;;;0.40;0.00;;;;;;;21.42;57.10;99566.80;126136;1093;102888;-72
2021/07/31 05:09:26;;;;;;;0.40;0.00;;;;;;;21.41;56.21;99573.22;126483;1093;113254;-72
2021/07/31 05:11:54;;;;;;;0.40;0.00;;;;;;;21.44;56.23;99565.67;126131;1093;102936;-72
2021/07/31 05:14:21;;;;;;;0.40;0.00;;;;;;;21.50;55.85;99569.73;126112;1093;114201;-72
2021/07/31 05:16:48;;;;;;;0.40;0.00;;;;;;;21.52;56.73;99571.29;126099;1093;103099;-71
2021/07/31 05:19:15;;;;;;;0.40;0.00;;;;;;;21.60;56.13;99567.96;126163;1093;103345;-72
2021/07/31 05:21:43;;;;;;;0.40;0.00;;;;;;;21.62;55.31;99568.70;126036;1091;112860;-72
2021/07/31 05:24:10;;;;;;;0.40;0.00;;;;;;;21.73;56.82;99575.05;126159;1093;102903;-71
2021/07/31 05:26:38;;;;;;;0.40;0.00;;;;;;;21.89;56.21;99570.01;126019;1095;114104;-71
2021/07/31 05:29:07;;;;;;;0.40;0.00;;;;;;;21.99;55.22;99567.34;126157;1094;102956;-72
2021/07/31 05:31:34;;;;;;;0.40;0.00;;;;;;;22.03;54.84;99566.08;126125;1093;102898;-71
2021/07/31 05:34:02;;;;;;;0.40;0.00;;;;;;;22.13;54.36;99563.44;125984;1095;113958;-73
2021/07/31 05:36:34;;;;;;;0.40;0.00;;;;;;;22.21;55.43;99559.03;126132;1092;102907;-74
2021/07/31 05:39:03;;;;;;;0.40;0.00;;;;;;;22.38;55.25;99562.15;126033;1093;114160;-74
2021/07/31 05:41:30;;;;;;;0.40;0.00;;;;;;;22.47;55.86;99564.04;126053;1093;102919;-71
2021/07/31 05:43:57;;;;;;;0.40;0.00;;;;;;;22.54;55.05;99562.47;126100;1093;102956;-72
2021/07/31 05:46:24;;;;;;;0.40;0.00;;;;;;;22.59;53.69;99572.05;125981;1093;113813;-72
2021/07/31 05:48:52;;;;;;;0.40;0.00;;;;;;;22.62;53.54;99558.20;126064;1093;103041;-71
2021/07/31 05:51:19;;;;;;;0.40;0.00;;;;;;;22.65;51.85;99553.36;125958;1093;114080;-72
2021/07/31 05:53:47;;;;;;;0.40;0.00;;;;;;;22.70;52.65;99553.80;126143;1093;103013;-72
2021/07/31 05:56:17;;;;;;;0.40;0.00;;;;;;;22.77;52.21;99561.41;125970;1093;114081;-72
2021/07/31 05:58:44;;;;;;;0.40;0.00;;;;;;;22.83;51.83;99560.82;126076;1093;102922;-72
2021/07/31 06:01:12;;;;;;;0.40;0.00;;;;;;;22.92;52.55;99559.98;126059;1093;102902;-72
2021/07/31 06:03:39;;;;;;;0.40;0.00;;;;;;;23.00;52.24;99570.14;126044;1093;114236;-74
2021/07/31 06:06:06;;;;;;;0.40;0.00;;;;;;;23.06;52.57;99564.16;126084;1092;102879;-72
2021/07/31 06:08:34;;;;;;;0.40;0.00;;;;;;;23.10;51.07;99562.00;125977;1093;114258;-73
2021/07/31 06:11:04;;;;;;;0.40;0.00;;;;;;;23.12;51.27;99558.14;126038;1093;103110;-73
2021/07/31 06:13:32;;;;;;;0.40;0.00;;;;;;;23.14;50.36;99561.62;126032;1095;104980;-76
2021/07/31 06:15:59;;;;;;;0.40;0.00;;;;;;;23.17;49.90;99558.61;125934;1093;113011;-73
2021/07/31 06:18:26;;;;;;;0.40;0.00;;;;;;;23.21;50.34;99553.75;126075;1093;102926;-73
2021/07/31 06:20:53;;;;;;;0.40;0.00;;;;;;;23.29;50.32;99547.61;126031;1092;114207;-71
2021/07/31 06:23:20;;;;;;;0.40;0.00;;;;;;;23.37;50.27;99556.75;126061;1093;103026;-72
2021/07/31 06:25:48;;;;;;;0.40;0.00;;;;;;;23.49;49.57;99548.45;126105;1096;102981;-72
2021/07/31 06:28:15;;;;;;;0.40;0.00;;;;;;;23.56;48.77;99548.73;125957;1093;113955;-71
2021/07/31 06:30:43;;;;;;;0.40;0.00;;;;;;;23.67;49.49;99548.55;126050;1092;102964;-72
2021/07/31 06:33:12;;;;;;;0.40;0.00;;;;;;;23.80;47.70;99553.69;126000;1092;114070;-72
2021/07/31 06:35:40;;;;;;;0.40;0.00;;;;;;;23.93;47.69;99548.82;126145;1092;102877;-74
2021/07/31 06:38:07;;;;;;;0.40;0.00;;;;;;;24.08;48.33;99543.75;126116;1093;102898;-72
2021/07/31 06:40:34;;;;;;;0.40;0.00;;;;;;;24.14;46.53;99537.73;126026;1091;113889;-72
2021/07/31 06:43:02;;;;;;;0.40;0.00;;;;;;;24.15;46.68;99536.73;126130;1092;102918;-71
2021/07/31 06:45:30;;;;;;;0.40;0.00;;;;;;;24.17;47.47;99540.14;126032;1092;113883;-72
2021/07/31 06:47:58;;;;;;;0.40;0.00;;;;;;;24.24;47.05;99543.12;126047;1094;102952;-74
2021/07/31 06:50:25;;;;;;;0.40;0.00;;;;;;;24.27;47.06;99542.84;125996;1093;114184;-71
2021/07/31 06:52:52;;;;;;;0.40;0.00;;;;;;;24.36;47.90;99547.38;126097;1093;102906;-71
2021/07/31 06:55:20;;;;;;;0.40;0.00;;;;;;;24.50;47.74;99540.56;126139;1095;102916;-72
2021/07/31 06:57:47;;;;;;;0.40;0.00;;;;;;;24.59;48.20;99552.42;126019;1093;114051;-73
2021/07/31 07:00:14;;;;;;;0.40;0.00;;;;;;;24.67;47.78;99551.67;126072;1092;102992;-70
2021/07/31 07:02:41;;;;;;;0.40;0.00;;;;;;;24.79;47.50;99553.20;125929;1094;114302;-72
2021/07/31 07:05:09;;;;;;;0.40;0.00;;;;;;;24.89;45.82;99552.27;126075;1095;103023;-72
2021/07/31 07:07:37;;;;;;;0.40;0.00;;;;;;;24.98;45.73;99556.80;126044;1094;102994;-72
2021/07/31 07:10:06;;;;;;;0.40;0.00;;;;;;;25.07;46.16;99552.27;125966;1093;113937;-72
2021/07/31 07:12:33;;;;;;;0.40;0.00;;;;;;;25.15;46.55;99538.72;126179;1093;102910;-72
2021/07/31 07:15:00;;;;;;;0.40;0.00;;;;;;;25.25;47.07;99536.78;126014;1093;113975;-72
2021/07/31 07:17:28;;;;;;;0.40;0.00;;;;;;;25.32;44.79;99540.58;126023;1092;103032;-72
2021/07/31 07:19:55;;;;;;;0.40;0.00;;;;;;;25.38;44.69;99536.42;126086;1094;103448;-72
2021/07/31 07:22:22;;;;;;;0.40;0.00;;;;;;;25.51;46.04;99531.41;125946;1094;113910;-71
2021/07/31 07:24:49;;;;;;;0.40;0.00;;;;;;;25.57;43.50;99529.91;126111;1096;103023;-72
2021/07/31 07:27:16;;;;;;;0.40;0.00;;;;;;;25.61;43.70;99534.03;125943;1092;114053;-72
2021/07/31 07:29:44;;;;;;;0.40;0.00;;;;;;;25.61;43.33;99530.47;126142;1092;102876;-72
2021/07/31 07:32:11;;;;;;;0.40;0.00;;;;;;;25.61;43.89;99528.58;126109;1093;102900;-75
2021/07/31 07:34:38;;;;;;;0.40;0.00;;;;;;;25.72;43.30;99526.61;125946;1093;113098;-75
2021/07/31 07:37:06;;;;;;;0.40;0.00;;;;;;;25.81;45.12;99520.20;126140;1093;102924;-73
2021/07/31 07:39:33;;;;;;;0.40;0.00;;;;;;;25.86;44.09;99515.13;125991;1093;114469;-73
2021/07/31 07:42:03;;;;;;;0.40;0.00;;;;;;;25.95;43.51;99516.88;126114;1092;103032;-73
2021/07/31 07:44:30;;;;;;;0.40;0.00;;;;;;;26.12;44.42;99512.38;126039;1094;114261;-73
2021/07/31 07:46:58;;;;;;;0.40;0.00;;;;;;;26.19;43.05;99507.99;126045;1093;103006;-73
2021/07/31 07:49:25;;;;;;;0.40;0.00;;;;;;;26.18;42.24;99505.43;126096;1093;103149;-74
2021/07/31 07:51:52;;;;;;;0.40;0.00;;;;;;;26.18;41.69;99510.89;125940;1095;113946;-73
2021/07/31 07:54:19;;;;;;;0.40;0.00;;;;;;;26.27;42.61;99509.91;126088;1093;102886;-73
2021/07/31 07:56:46;;;;;;;0.40;0.00;;;;;;;26.41;41.76;99510.30;125991;1095;114250;-73
2021/07/31 07:59:13;;;;;;;0.40;0.00;;;;;;;26.57;41.99;99520.42;126042;1092;103009;-71
2021/07/31 08:01:45;;;;;;;0.40;0.00;;;;;;;26.72;40.71;99520.67;125930;1092;102891;-72
2021/07/31 08:04:13;;;;;;;0.40;0.00;;;;;;;26.79;41.95;99527.16;126057;1092;113920;-72
2021/07/31 08:06:41;;;;;;;0.40;0.00;;;;;;;26.85;41.76;99519.15;126098;1092;103039;-72
2021/07/31 08:09:08;;;;;;;0.40;0.00;;;;;;;26.93;42.73;99520.20;126036;1095;112896;-72
2021/07/31 08:11:35;;;;;;;0.40;0.00;;;;;;;27.06;42.55;99522.42;126047;1093;102993;-73
2021/07/31 08:14:02;;;;;;;0.40;0.00;;;;;;;27.10;42.27;99526.52;126118;1093;103029;-72
2021/07/31 08:16:29;;;;;;;0.40;0.00;;;;;;;27.12;43.16;99532.69;125953;1092;113973;-72
2021/07/31 08:18:57;;;;;;;0.40;0.00;;;;;;;27.05;41.78;99528.94;126134;1093;102927;-72
2021/07/31 08:21:24;;;;;;;0.40;0.00;;;;;;;27.07;41.46;99529.61;125951;1093;113959;-72
2021/07/31 08:23:51;;;;;;;0.40;0.00;;;;;;;27.02;40.39;99527.39;126023;1093;102897;-72
2021/07/31 08:26:18;;;;;;;0.40;0.00;;;;;;;26.94;41.43;99528.23;125861;1093;114106;-72
2021/07/31 08:28:46;;;;;;;0.40;0.00;;;;;;;26.95;41.95;99529.07;126130;1093;102890;-73
2021/07/31 08:31:13;;;;;;;0.40;0.00;;;;;;;26.96;42.31;99528.05;126073;1093;102905;-73
2021/07/31 08:33:40;;;;;;;0.40;0.00;;;;;;;26.97;40.71;99524.31;125944;1095;114127;-73
2021/07/31 08:36:10;;;;;;;0.40;0.00;;;;;;;26.96;40.96;99523.44;126081;1093;103009;-73
2021/07/31 08:38:37;;;;;;;0.40;0.00;;;;;;;26.99;42.19;99523.12;125987;1092;114094;-73
2021/07/31 08:41:05;;;;;;;0.40;0.00;;;;;;;27.01;41.42;99525.67;126054;1095;102990;-73
2021/07/31 08:43:33;;;;;;;0.40;0.00;;;;;;;27.01;41.54;99518.32;126095;1095;102995;-73
2021/07/31 08:46:07;;;;;;;0.40;0.00;;;;;;;27.03;42.36;99515.41;126048;1093;113915;-73
2021/07/31 08:48:34;;;;;;;0.40;0.00;;;;;;;27.07;42.06;99515.94;126085;1091;102997;-73
2021/07/31 08:51:03;;;;;;;0.40;0.00;;;;;;;27.08;41.80;99512.19;125964;1093;114001;-74
2021/07/31 08:53:30;;;;;;;0.40;0.00;;;;;;;27.14;42.93;99517.83;126136;1095;102888;-73
2021/07/31 08:55:59;;;;;;;0.40;0.00;;;;;;;27.18;42.54;99513.73;126140;1092;102879;-73
2021/07/31 08:58:28;;;;;;;0.40;0.00;;;;;;;27.26;42.82;99509.28;125967;1093;114017;-73
2021/07/31 09:00:56;;;;;;;0.40;0.00;;;;;;;27.29;42.37;99511.69;126078;1095;102900;-72
2021/07/31 09:03:24;;;;;;;0.40;0.00;;;;;;;27.35;42.32;99508.25;125986;1092;113921;-72
2021/07/31 09:05:51;;;;;;;0.40;0.00;;;;;;;27.44;43.07;99506.41;126139;1093;103610;-72
2021/07/31 09:08:18;;;;;;;0.40;0.00;;;;;;;27.45;42.91;99511.70;125944;1093;114635;-74
2021/07/31 09:10:46;;;;;;;0.40;0.00;;;;;;;27.52;42.46;99511.88;126110;1093;102894;-73
2021/07/31 09:13:17;;;;;;;0.40;0.00;;;;;;;27.53;42.12;99498.02;126084;1093;102881;-74
2021/07/31 09:15:54;;;;;;;0.40;0.00;;;;;;;27.58;41.78;99500.25;126011;1093;112909;-74
2021/07/31 09:18:30;;;;;;;0.40;0.00;;;;;;;27.65;41.98;99487.58;126095;1093;102886;-74
2021/07/31 09:21:02;;;;;;;0.40;0.00;;;;;;;27.66;42.63;99481.09;126010;1095;114770;-74
2021/07/31 09:23:55;;;;;;;0.40;0.00;;;;;;;27.76;42.30;99486.36;126081;1095;103146;-74
2021/07/31 09:26:25;;;;;;;0.40;0.00;;;;;;;27.86;42.46;99477.97;125897;1093;114147;-72
2021/07/31 09:29:00;;;;;;;0.40;0.00;;;;;;;27.97;41.74;99483.05;126152;1093;103036;-71
2021/07/31 09:31:28;;;;;;;0.40;0.00;;;;;;;28.31;41.46;99479.20;126119;1093;102926;-72
2021/07/31 09:34:02;;;;;;;0.40;0.00;;;;;;;28.65;41.10;99468.95;126133;1093;113992;-73
2021/07/31 09:36:38;;;;;;;0.40;0.00;;;;;;;29.05;41.57;99477.07;126173;1092;102954;-73
2021/07/31 09:39:10;;;;;;;0.40;0.00;;;;;;;29.09;37.56;99467.44;126052;1093;114130;-74
2021/07/31 09:41:42;;;;;;;0.40;0.00;;;;;;;29.08;39.10;99472.05;126177;1096;102973;-74
2021/07/31 09:44:10;;;;;;;0.40;0.00;;;;;;;29.16;38.96;99468.39;126165;1093;102899;-73
2021/07/31 09:46:48;;;;;;;0.40;0.00;;;;;;;29.20;38.48;99466.98;126044;1092;113898;-73
2021/07/31 09:49:18;;;;;;;0.40;0.00;;;;;;;29.52;39.78;99482.34;126157;1092;102948;-73
2021/07/31 09:51:48;;;;;;;0.40;0.00;;;;;;;29.64;38.53;99473.64;126050;1093;114156;-73
2021/07/31 09:54:18;;;;;;;0.40;0.00;;;;;;;29.80;38.33;99467.13;126205;1093;102881;-71
2021/07/31 09:56:53;;;;;;;0.40;0.00;;;;;;;29.87;36.83;99469.99;126058;1093;114455;-73
2021/07/31 09:59:22;;;;;;;0.40;0.00;;;;;;;30.04;37.37;99460.52;126372;1093;103039;-72
2021/07/31 10:01:52;;;;;;;0.40;0.00;;;;;;;30.22;37.03;99462.88;126134;1093;102900;-75
2021/07/31 10:04:20;;;;;;;0.40;0.00;;;;;;;30.50;36.22;99468.54;126022;1095;114131;-75
2021/07/31 10:06:47;;;;;;;0.40;0.00;;;;;;;30.64;35.67;99469.56;126110;1092;103050;-73
2021/07/31 10:09:14;;;;;;;0.40;0.00;;;;;;;30.35;36.19;99462.21;126577;1093;114095;-73
2021/07/31 10:11:44;;;;;;;0.40;0.00;;;;;;;30.21;36.61;99463.92;126323;1093;102945;-73
2021/07/31 10:14:12;;;;;;;0.40;0.00;;;;;;;30.14;36.65;99455.59;126143;1092;102983;-73
2021/07/31 10:16:45;;;;;;;0.40;0.00;;;;;;;30.11;36.27;99466.97;126027;1094;114481;-73
2021/07/31 10:19:13;;;;;;;0.40;0.00;;;;;;;30.26;37.00;99463.36;126115;1093;102975;-73
2021/07/31 10:21:52;;;;;;;0.40;0.00;;;;;;;30.35;35.87;99460.30;125925;1093;114087;-73
2021/07/31 10:24:20;;;;;;;0.40;0.00;;;;;;;30.17;37.69;99463.44;126083;1093;103080;-72
2021/07/31 10:27:26;;;;;;;0.40;0.00;;;;;;;30.09;38.01;99466.30;125981;1093;114334;-72
2021/07/31 10:29:55;;;;;;;0.40;0.00;;;;;;;30.07;38.09;99471.14;126100;1093;102897;-75
2021/07/31 10:32:29;;;;;;;0.40;0.00;;;;;;;30.04;38.58;99471.50;125975;1094;114131;-73
2021/07/31 10:35:03;;;;;;;0.40;0.00;;;;;;;29.90;39.26;99469.61;126099;1096;103024;-73
2021/07/31 10:37:34;;;;;;;0.40;0.00;;;;;;;29.66;39.39;99466.92;126115;1093;103000;-75
2021/07/31 10:40:07;;;;;;;0.40;0.00;;;;;;;29.53;39.30;99463.98;126074;1094;113929;-75
2021/07/31 10:42:47;;;;;;;0.40;0.00;;;;;;;29.68;40.01;99464.86;126268;1095;103003;-75
2021/07/31 10:45:22;;;;;;;0.40;0.00;;;;;;;29.96;38.55;99468.86;125979;1095;113935;-77
2021/07/31 10:47:50;;;;;;;0.40;0.00;;;;;;;29.94;38.03;99471.80;126146;1092;102904;-75
2021/07/31 10:50:23;;;;;;;0.40;0.00;;;;;;;29.84;39.51;99471.19;126085;1095;103026;-75
2021/07/31 10:52:54;;;;;;;0.40;0.00;;;;;;;29.79;40.70;99469.03;126037;1093;113829;-75
2021/07/31 10:55:23;;;;;;;0.40;0.00;;;;;;;29.76;40.52;99474.88;126145;1093;103031;-72
2021/07/31 10:57:53;;;;;;;0.40;0.00;;;;;;;29.66;40.20;99461.44;126297;1095;114286;-75
2021/07/31 11:00:34;;;;;;;0.40;0.00;;;;;;;29.52;39.62;99463.14;126132;1092;103023;-75
2021/07/31 11:03:05;;;;;;;0.40;0.00;;;;;;;29.41;39.88;99468.22;126043;1093;114507;-73
2021/07/31 11:05:49;;;;;;;0.40;0.00;;;;;;;29.44;41.17;99473.33;126104;1092;102893;-74
2021/07/31 11:08:17;;;;;;;0.40;0.00;;;;;;;29.30;40.44;99475.01;126177;1093;103150;-74
2021/07/31 11:10:49;;;;;;;0.40;0.00;;;;;;;29.18;42.57;99477.30;126035;1093;113829;-73
2021/07/31 11:13:16;;;;;;;0.40;0.00;;;;;;;29.13;42.90;99477.00;126280;1095;103048;-73
2021/07/31 11:16:13;;;;;;;0.40;0.00;;;;;;;29.06;43.66;99476.88;126062;1095;114050;-73
2021/07/31 11:18:42;;;;;;;0.40;0.00;;;;;;;29.05;42.92;99472.42;126198;1093;102906;-74
2021/07/31 11:21:17;;;;;;;0.40;0.00;;;;;;;29.02;43.09;99470.91;125981;1092;114254;-73
2021/07/31 11:24:05;;;;;;;0.40;0.00;;;;;;;28.94;43.47;99465.48;126157;1092;102888;-75